sensor_id;sensor_type;location;lat;lon;timestamp;pressure;altitude;pressure_sealevel;temperature;humidity
39443;BME280;25147;52.142;9.960;2023-04-25T00:01:37;99616.22;;;6.69;85.52
39443;BME280;25147;52.142;9.960;2023-04-25T00:04:27;99650.88;;;6.69;86.22
39443;BME280;25147;52.142;9.960;2023-04-25T00:07:16;99654.88;;;6.96;86.04
39443;BME280;25147;52.142;9.960;2023-04-25T00:09:46;99590.41;;;6.55;86.13
39443;BME280;25147;52.142;9.960;2023-04-25T00:12:20;99750.78;;;7.24;86.31
39443;BME280;25147;52.142;9.960;2023-04-25T00:15:11;99235.69;;;4.26;86.13
39443;BME280;25147;52.142;9.960;2023-04-25T00:21:19;99716.16;;;7.19;87.56
39443;BME280;25147;52.142;9.960;2023-04-25T00:24:29;99707.53;;;7.15;86.79
39443;BME280;25147;52.142;9.960;2023-04-25T00:27:07;99571.50;;;6.42;86.55
39443;BME280;25147;52.142;9.960;2023-04-25T00:29:49;99304.34;;;4.69;86.58
39443;BME280;25147;52.142;9.960;2023-04-25T00:32:30;99536.53;;;5.98;87.11
39443;BME280;25147;52.142;9.960;2023-04-25T00:35:05;99338.84;;;4.75;86.23
39443;BME280;25147;52.142;9.960;2023-04-25T00:37:41;99677.41;;;6.99;86.93
39443;BME280;25147;52.142;9.960;2023-04-25T00:40:19;99520.00;;;6.05;86.45
39443;BME280;25147;52.142;9.960;2023-04-25T00:43:05;99682.59;;;7.00;86.96
39443;BME280;25147;52.142;9.960;2023-04-25T00:45:41;99539.94;;;6.03;87.64
39443;BME280;25147;52.142;9.960;2023-04-25T00:48:21;99635.66;;;6.41;88.19
39443;BME280;25147;52.142;9.960;2023-04-25T00:50:53;99297.56;;;4.57;88.20
39443;BME280;25147;52.142;9.960;2023-04-25T00:53:30;99600.31;;;6.25;88.49
39443;BME280;25147;52.142;9.960;2023-04-25T00:56:22;99248.75;;;4.12;88.94
39443;BME280;25147;52.142;9.960;2023-04-25T00:59:03;99267.78;;;4.07;88.76
39443;BME280;25147;52.142;9.960;2023-04-25T01:01:59;99674.47;;;6.55;88.93
39443;BME280;25147;52.142;9.960;2023-04-25T01:05:19;99458.63;;;5.13;88.72
39443;BME280;25147;52.142;9.960;2023-04-25T01:11:37;99272.16;;;4.00;88.26
39443;BME280;25147;52.142;9.960;2023-04-25T01:14:23;99311.72;;;4.19;88.62
39443;BME280;25147;52.142;9.960;2023-04-25T01:17:05;99709.69;;;6.82;88.74
39443;BME280;25147;52.142;9.960;2023-04-25T01:20:16;99541.88;;;5.82;89.48
39443;BME280;25147;52.142;9.960;2023-04-25T01:23:05;99613.34;;;6.20;89.57
39443;BME280;25147;52.142;9.960;2023-04-25T01:26:25;99200.72;;;3.79;89.11
39443;BME280;25147;52.142;9.960;2023-04-25T01:29:13;99195.59;;;3.73;89.46
39443;BME280;25147;52.142;9.960;2023-04-25T01:31:46;99397.38;;;5.01;89.60
39443;BME280;25147;52.142;9.960;2023-04-25T01:34:58;99288.34;;;4.27;90.07
39443;BME280;25147;52.142;9.960;2023-04-25T01:37:42;99707.88;;;6.88;90.05
39443;BME280;25147;52.142;9.960;2023-04-25T01:40:32;99253.19;;;3.98;89.93
39443;BME280;25147;52.142;9.960;2023-04-25T01:43:25;99735.66;;;6.87;90.89
39443;BME280;25147;52.142;9.960;2023-04-25T01:46:09;99708.78;;;6.88;90.93
39443;BME280;25147;52.142;9.960;2023-04-25T01:49:14;99704.41;;;6.89;91.39
39443;BME280;25147;52.142;9.960;2023-04-25T01:51:47;99204.91;;;3.91;91.23
39443;BME280;25147;52.142;9.960;2023-04-25T01:54:25;99605.59;;;6.16;91.65
39443;BME280;25147;52.142;9.960;2023-04-25T01:57:27;99498.19;;;5.38;91.46
39443;BME280;25147;52.142;9.960;2023-04-25T02:00:18;99619.34;;;6.27;91.32
39443;BME280;25147;52.142;9.960;2023-04-25T02:03:27;99762.53;;;6.88;91.51
39443;BME280;25147;52.142;9.960;2023-04-25T02:06:15;99728.69;;;6.88;91.99
39443;BME280;25147;52.142;9.960;2023-04-25T02:09:13;99731.31;;;6.88;92.40
39443;BME280;25147;52.142;9.960;2023-04-25T02:12:05;99409.72;;;4.76;91.66
39443;BME280;25147;52.142;9.960;2023-04-25T02:14:48;99535.91;;;5.71;92.33
39443;BME280;25147;52.142;9.960;2023-04-25T02:17:36;99653.28;;;6.15;92.24
39443;BME280;25147;52.142;9.960;2023-04-25T02:20:29;99228.31;;;3.83;92.50
39443;BME280;25147;52.142;9.960;2023-04-25T02:23:02;99731.34;;;6.86;92.57
39443;BME280;25147;52.142;9.960;2023-04-25T02:25:45;99576.31;;;6.01;92.74
39443;BME280;25147;52.142;9.960;2023-04-25T02:28:29;99620.22;;;6.25;92.96
39443;BME280;25147;52.142;9.960;2023-04-25T02:31:31;99322.00;;;4.30;93.71
39443;BME280;25147;52.142;9.960;2023-04-25T02:34:07;99302.25;;;4.16;93.81
39443;BME280;25147;52.142;9.960;2023-04-25T02:37:23;99727.00;;;6.87;94.52
39443;BME280;25147;52.142;9.960;2023-04-25T02:40:08;99250.63;;;3.96;95.24
39443;BME280;25147;52.142;9.960;2023-04-25T02:42:53;99259.41;;;3.74;96.34
39443;BME280;25147;52.142;9.960;2023-04-25T02:46:10;99724.50;;;6.77;97.16
39443;BME280;25147;52.142;9.960;2023-04-25T02:48:54;99249.00;;;3.83;97.53
39443;BME280;25147;52.142;9.960;2023-04-25T02:51:51;99585.25;;;5.71;98.58
39443;BME280;25147;52.142;9.960;2023-04-25T02:54:58;99269.81;;;3.71;99.17
39443;BME280;25147;52.142;9.960;2023-04-25T03:08:28;99622.47;;;5.73;100.00
39443;BME280;25147;52.142;9.960;2023-04-25T03:15:41;99287.22;;;3.42;100.00
39443;BME280;25147;52.142;9.960;2023-04-25T03:18:49;99694.28;;;5.77;100.00
39443;BME280;25147;52.142;9.960;2023-04-25T03:25:32;99469.84;;;3.93;100.00
39443;BME280;25147;52.142;9.960;2023-04-25T03:28:08;99777.47;;;5.68;100.00
39443;BME280;25147;52.142;9.960;2023-04-25T03:30:59;99779.25;;;5.58;100.00
39443;BME280;25147;52.142;9.960;2023-04-25T03:34:12;99622.44;;;4.51;100.00
39443;BME280;25147;52.142;9.960;2023-04-25T03:36:56;99793.16;;;5.47;100.00
39443;BME280;25147;52.142;9.960;2023-04-25T03:39:49;99270.38;;;2.43;100.00
39443;BME280;25147;52.142;9.960;2023-04-25T03:43:01;99791.47;;;5.46;100.00
39443;BME280;25147;52.142;9.960;2023-04-25T03:45:44;99804.41;;;5.49;100.00
39443;BME280;25147;52.142;9.960;2023-04-25T03:48:55;99321.13;;;2.67;100.00
39443;BME280;25147;52.142;9.960;2023-04-25T03:51:54;99572.50;;;4.14;100.00
39443;BME280;25147;52.142;9.960;2023-04-25T03:54:37;99805.25;;;5.54;100.00
39443;BME280;25147;52.142;9.960;2023-04-25T03:57:35;99794.91;;;5.43;100.00
39443;BME280;25147;52.142;9.960;2023-04-25T04:00:27;99807.00;;;5.50;100.00
39443;BME280;25147;52.142;9.960;2023-04-25T04:03:21;99642.31;;;4.52;100.00
39443;BME280;25147;52.142;9.960;2023-04-25T04:06:48;99819.13;;;5.50;100.00
39443;BME280;25147;52.142;9.960;2023-04-25T04:12:26;99323.75;;;2.55;100.00
39443;BME280;25147;52.142;9.960;2023-04-25T04:15:05;99372.81;;;2.69;100.00
39443;BME280;25147;52.142;9.960;2023-04-25T04:17:35;99836.34;;;5.63;100.00
39443;BME280;25147;52.142;9.960;2023-04-25T04:23:13;99832.00;;;5.67;100.00
39443;BME280;25147;52.142;9.960;2023-04-25T04:25:51;99547.59;;;3.77;100.00
39443;BME280;25147;52.142;9.960;2023-04-25T04:28:32;99830.31;;;5.62;100.00
39443;BME280;25147;52.142;9.960;2023-04-25T04:31:14;99863.19;;;5.59;100.00
39443;BME280;25147;52.142;9.960;2023-04-25T04:33:59;99813.06;;;5.49;100.00
39443;BME280;25147;52.142;9.960;2023-04-25T04:36:38;99512.25;;;3.73;100.00
39443;BME280;25147;52.142;9.960;2023-04-25T04:39:38;99522.59;;;3.75;100.00
39443;BME280;25147;52.142;9.960;2023-04-25T04:42:13;99870.09;;;5.63;100.00
39443;BME280;25147;52.142;9.960;2023-04-25T04:44:46;99852.84;;;5.56;100.00
39443;BME280;25147;52.142;9.960;2023-04-25T04:47:38;99728.56;;;4.96;100.00
39443;BME280;25147;52.142;9.960;2023-04-25T04:50:32;99488.16;;;3.54;99.73
39443;BME280;25147;52.142;9.960;2023-04-25T04:53:21;99569.16;;;3.82;99.92
39443;BME280;25147;52.142;9.960;2023-04-25T04:56:24;99851.84;;;5.75;100.00
39443;BME280;25147;52.142;9.960;2023-04-25T04:59:31;99848.44;;;5.70;99.65
39443;BME280;25147;52.142;9.960;2023-04-25T05:02:26;99794.09;;;5.36;98.53
39443;BME280;25147;52.142;9.960;2023-04-25T05:05:50;99558.78;;;3.95;97.49
39443;BME280;25147;52.142;9.960;2023-04-25T05:08:25;99897.69;;;5.84;97.49
39443;BME280;25147;52.142;9.960;2023-04-25T05:10:52;99911.53;;;5.91;97.02
39443;BME280;25147;52.142;9.960;2023-04-25T05:13:38;99872.56;;;5.88;97.11
39443;BME280;25147;52.142;9.960;2023-04-25T05:17:08;99593.28;;;4.03;95.60
39443;BME280;25147;52.142;9.960;2023-04-25T05:19:52;99604.47;;;4.11;94.78
39443;BME280;25147;52.142;9.960;2023-04-25T05:22:35;99913.25;;;5.90;94.49
39443;BME280;25147;52.142;9.960;2023-04-25T05:25:30;99924.53;;;5.92;94.47
39443;BME280;25147;52.142;9.960;2023-04-25T05:28:18;99416.69;;;2.96;93.72
39443;BME280;25147;52.142;9.960;2023-04-25T05:31:32;99729.44;;;4.90;92.53
39443;BME280;25147;52.142;9.960;2023-04-25T05:34:08;99695.81;;;4.75;92.51
39443;BME280;25147;52.142;9.960;2023-04-25T05:36:46;99934.03;;;5.93;91.27
39443;BME280;25147;52.142;9.960;2023-04-25T05:39:21;99472.69;;;3.22;92.01
39443;BME280;25147;52.142;9.960;2023-04-25T05:42:07;99595.88;;;3.98;91.53
39443;BME280;25147;52.142;9.960;2023-04-25T05:45:08;99913.25;;;6.02;89.84
39443;BME280;25147;52.142;9.960;2023-04-25T05:48:02;99908.00;;;6.09;90.87
39443;BME280;25147;52.142;9.960;2023-04-25T05:50:51;99604.38;;;4.36;88.98
39443;BME280;25147;52.142;9.960;2023-04-25T05:53:27;99638.91;;;4.42;87.31
39443;BME280;25147;52.142;9.960;2023-04-25T05:56:05;99619.97;;;4.30;86.80
39443;BME280;25147;52.142;9.960;2023-04-25T06:01:59;99923.66;;;5.89;85.36
39443;BME280;25147;52.142;9.960;2023-04-25T06:04:48;99934.00;;;6.04;85.38
39443;BME280;25147;52.142;9.960;2023-04-25T06:07:30;99848.59;;;5.38;85.21
39443;BME280;25147;52.142;9.960;2023-04-25T06:10:21;99921.09;;;5.79;83.77
39443;BME280;25147;52.142;9.960;2023-04-25T06:13:17;99994.66;;;6.03;82.32
39443;BME280;25147;52.142;9.960;2023-04-25T06:16:05;99802.94;;;4.91;80.57
39443;BME280;25147;52.142;9.960;2023-04-25T06:18:33;99968.66;;;6.05;79.65
39443;BME280;25147;52.142;9.960;2023-04-25T06:21:16;99789.94;;;5.01;80.46
39443;BME280;25147;52.142;9.960;2023-04-25T06:24:11;99968.63;;;6.08;79.98
39443;BME280;25147;52.142;9.960;2023-04-25T06:32:51;99347.00;;;2.36;77.33
39443;BME280;25147;52.142;9.960;2023-04-25T06:35:38;99962.56;;;6.04;76.80
39443;BME280;25147;52.142;9.960;2023-04-25T06:38:39;99715.72;;;4.57;76.78
39443;BME280;25147;52.142;9.960;2023-04-25T06:41:23;99784.75;;;5.01;76.81
39443;BME280;25147;52.142;9.960;2023-04-25T06:44:17;99978.97;;;6.23;75.82
39443;BME280;25147;52.142;9.960;2023-04-25T06:47:10;99999.69;;;6.31;76.50
39443;BME280;25147;52.142;9.960;2023-04-25T06:49:56;99975.38;;;6.39;74.64
39443;BME280;25147;52.142;9.960;2023-04-25T06:52:25;99968.47;;;6.34;74.33
39443;BME280;25147;52.142;9.960;2023-04-25T06:55:50;99515.75;;;3.48;74.10
39443;BME280;25147;52.142;9.960;2023-04-25T06:58:51;99816.50;;;5.53;75.17
39443;BME280;25147;52.142;9.960;2023-04-25T07:02:14;99893.34;;;5.88;74.41
39443;BME280;25147;52.142;9.960;2023-04-25T07:07:57;99889.03;;;5.82;74.44
39443;BME280;25147;52.142;9.960;2023-04-25T07:10:48;99486.44;;;3.41;75.06
39443;BME280;25147;52.142;9.960;2023-04-25T07:13:27;99650.97;;;4.47;75.18
39443;BME280;25147;52.142;9.960;2023-04-25T07:16:24;99876.06;;;5.83;75.25
39443;BME280;25147;52.142;9.960;2023-04-25T07:19:29;99994.19;;;6.78;74.68
39443;BME280;25147;52.142;9.960;2023-04-25T07:22:15;99999.19;;;7.05;73.37
39443;BME280;25147;52.142;9.960;2023-04-25T07:24:52;99882.44;;;6.63;72.29
39443;BME280;25147;52.142;9.960;2023-04-25T07:27:32;100016.28;;;7.33;69.59
39443;BME280;25147;52.142;9.960;2023-04-25T07:30:38;100009.44;;;7.18;68.03
39443;BME280;25147;52.142;9.960;2023-04-25T07:36:13;100012.34;;;6.86;63.97
39443;BME280;25147;52.142;9.960;2023-04-25T07:39:00;100020.16;;;6.86;62.29
39443;BME280;25147;52.142;9.960;2023-04-25T07:41:34;99615.59;;;4.33;62.79
39443;BME280;25147;52.142;9.960;2023-04-25T07:47:30;99898.25;;;6.38;64.42
39443;BME280;25147;52.142;9.960;2023-04-25T07:50:10;99797.22;;;5.95;64.77
39443;BME280;25147;52.142;9.960;2023-04-25T07:52:47;100037.13;;;7.30;64.76
39443;BME280;25147;52.142;9.960;2023-04-25T07:55:46;99972.16;;;7.18;64.22
39443;BME280;25147;52.142;9.960;2023-04-25T07:58:34;100040.47;;;7.44;63.25
39443;BME280;25147;52.142;9.960;2023-04-25T08:01:27;100013.69;;;7.32;62.96
39443;BME280;25147;52.142;9.960;2023-04-25T08:07:18;99923.19;;;6.62;62.15
39443;BME280;25147;52.142;9.960;2023-04-25T08:10:01;100070.22;;;7.19;62.34
39443;BME280;25147;52.142;9.960;2023-04-25T08:12:53;100034.69;;;7.13;63.24
39443;BME280;25147;52.142;9.960;2023-04-25T08:18:37;99940.66;;;6.50;65.13
39443;BME280;25147;52.142;9.960;2023-04-25T08:21:15;99963.22;;;6.45;65.34
39443;BME280;25147;52.142;9.960;2023-04-25T08:23:49;99848.34;;;5.89;65.62
39443;BME280;25147;52.142;9.960;2023-04-25T08:26:29;99782.69;;;5.65;66.39
39443;BME280;25147;52.142;9.960;2023-04-25T08:29:05;100057.94;;;7.33;66.50
39443;BME280;25147;52.142;9.960;2023-04-25T08:31:49;99993.28;;;6.79;62.99
39443;BME280;25147;52.142;9.960;2023-04-25T08:34:43;99586.22;;;4.42;62.59
39443;BME280;25147;52.142;9.960;2023-04-25T08:37:30;100081.31;;;7.38;56.18
39443;BME280;25147;52.142;9.960;2023-04-25T08:40:35;100071.75;;;7.43;57.86
39443;BME280;25147;52.142;9.960;2023-04-25T08:43:23;99966.44;;;6.77;57.10
39443;BME280;25147;52.142;9.960;2023-04-25T08:46:08;99606.03;;;4.49;55.75
39443;BME280;25147;52.142;9.960;2023-04-25T08:49:04;99630.09;;;4.76;57.66
39443;BME280;25147;52.142;9.960;2023-04-25T08:51:55;100061.44;;;7.31;55.78
39443;BME280;25147;52.142;9.960;2023-04-25T08:55:16;99776.59;;;5.69;55.93
39443;BME280;25147;52.142;9.960;2023-04-25T08:57:56;99970.91;;;6.58;57.02
39443;BME280;25147;52.142;9.960;2023-04-25T09:00:34;99827.72;;;5.64;57.61
39443;BME280;25147;52.142;9.960;2023-04-25T09:03:18;100090.88;;;7.37;53.35
39443;BME280;25147;52.142;9.960;2023-04-25T09:05:58;99986.44;;;6.69;53.98
39443;BME280;25147;52.142;9.960;2023-04-25T09:08:49;100096.94;;;7.39;54.95
39443;BME280;25147;52.142;9.960;2023-04-25T09:11:23;100108.97;;;7.53;55.94
39443;BME280;25147;52.142;9.960;2023-04-25T09:14:20;99570.50;;;4.71;54.90
39443;BME280;25147;52.142;9.960;2023-04-25T09:17:09;100091.16;;;7.99;54.68
39443;BME280;25147;52.142;9.960;2023-04-25T09:19:44;100140.59;;;8.09;55.20
39443;BME280;25147;52.142;9.960;2023-04-25T09:25:37;100097.25;;;7.97;55.64
39443;BME280;25147;52.142;9.960;2023-04-25T09:28:50;100115.56;;;7.91;56.33
39443;BME280;25147;52.142;9.960;2023-04-25T09:31:53;99679.19;;;5.08;56.30
39443;BME280;25147;52.142;9.960;2023-04-25T09:34:52;99958.00;;;6.43;56.98
39443;BME280;25147;52.142;9.960;2023-04-25T09:37:33;100146.47;;;7.35;57.90
39443;BME280;25147;52.142;9.960;2023-04-25T09:40:27;100153.41;;;7.34;59.06
39443;BME280;25147;52.142;9.960;2023-04-25T09:43:39;99971.91;;;6.39;59.41
39443;BME280;25147;52.142;9.960;2023-04-25T09:46:40;100153.25;;;7.56;59.50
39443;BME280;25147;52.142;9.960;2023-04-25T09:52:46;99864.00;;;5.72;57.54
39443;BME280;25147;52.142;9.960;2023-04-25T09:55:53;100146.13;;;7.73;57.20
39443;BME280;25147;52.142;9.960;2023-04-25T09:59:21;99848.16;;;6.18;58.34
39443;BME280;25147;52.142;9.960;2023-04-25T10:02:47;99697.25;;;5.27;58.22
39443;BME280;25147;52.142;9.960;2023-04-25T10:05:51;100160.59;;;8.07;57.21
39443;BME280;25147;52.142;9.960;2023-04-25T10:11:59;100032.75;;;7.32;57.35
39443;BME280;25147;52.142;9.960;2023-04-25T10:14:29;99882.53;;;6.52;58.16
39443;BME280;25147;52.142;9.960;2023-04-25T10:17:02;100125.69;;;8.20;56.65
39443;BME280;25147;52.142;9.960;2023-04-25T10:19:47;100164.47;;;8.51;57.41
39443;BME280;25147;52.142;9.960;2023-04-25T10:22:26;100069.44;;;8.00;55.19
39443;BME280;25147;52.142;9.960;2023-04-25T10:25:01;99770.28;;;6.09;54.87
39443;BME280;25147;52.142;9.960;2023-04-25T10:27:34;99803.81;;;6.36;56.45
39443;BME280;25147;52.142;9.960;2023-04-25T10:30:07;99896.72;;;7.10;57.42
39443;BME280;25147;52.142;9.960;2023-04-25T10:32:44;100168.34;;;8.92;57.12
39443;BME280;25147;52.142;9.960;2023-04-25T10:35:37;99719.75;;;6.37;57.08
39443;BME280;25147;52.142;9.960;2023-04-25T10:38:39;100196.22;;;8.90;52.98
39443;BME280;25147;52.142;9.960;2023-04-25T10:41:09;100208.66;;;8.66;53.17
39443;BME280;25147;52.142;9.960;2023-04-25T10:43:44;99961.47;;;7.42;53.75
39443;BME280;25147;52.142;9.960;2023-04-25T10:46:33;100140.97;;;8.54;53.70
39443;BME280;25147;52.142;9.960;2023-04-25T10:49:55;99968.00;;;7.79;54.72
39443;BME280;25147;52.142;9.960;2023-04-25T10:52:53;99983.50;;;7.93;55.02
39443;BME280;25147;52.142;9.960;2023-04-25T10:56:14;100202.19;;;8.98;53.10
39443;BME280;25147;52.142;9.960;2023-04-25T10:58:47;100019.16;;;7.89;53.44
39443;BME280;25147;52.142;9.960;2023-04-25T11:01:37;100169.66;;;8.57;52.75
39443;BME280;25147;52.142;9.960;2023-04-25T11:04:24;100189.69;;;8.55;54.03
39443;BME280;25147;52.142;9.960;2023-04-25T11:07:10;99991.94;;;7.34;54.78
39443;BME280;25147;52.142;9.960;2023-04-25T11:09:45;99930.75;;;6.92;56.29
39443;BME280;25147;52.142;9.960;2023-04-25T11:12:20;100179.25;;;8.53;55.16
39443;BME280;25147;52.142;9.960;2023-04-25T11:14:47;99855.63;;;6.56;54.87
39443;BME280;25147;52.142;9.960;2023-04-25T11:17:17;100183.56;;;8.56;54.19
39443;BME280;25147;52.142;9.960;2023-04-25T11:19:48;100193.97;;;8.59;54.62
39443;BME280;25147;52.142;9.960;2023-04-25T11:22:15;100021.06;;;7.73;53.15
39443;BME280;25147;52.142;9.960;2023-04-25T11:24:43;99923.84;;;6.88;53.32
39443;BME280;25147;52.142;9.960;2023-04-25T11:27:10;100199.19;;;8.59;54.20
39443;BME280;25147;52.142;9.960;2023-04-25T11:29:38;100210.44;;;8.64;53.65
39443;BME280;25147;52.142;9.960;2023-04-25T11:32:15;100133.59;;;8.12;53.64
39443;BME280;25147;52.142;9.960;2023-04-25T11:34:47;100220.25;;;8.39;54.01
39443;BME280;25147;52.142;9.960;2023-04-25T11:37:41;99914.69;;;6.42;55.39
39443;BME280;25147;52.142;9.960;2023-04-25T11:40:24;100207.66;;;7.93;56.46
39443;BME280;25147;52.142;9.960;2023-04-25T11:43:17;99985.75;;;6.44;56.72
39443;BME280;25147;52.142;9.960;2023-04-25T11:45:53;100186.91;;;7.77;57.04
39443;BME280;25147;52.142;9.960;2023-04-25T11:48:42;99924.50;;;6.01;56.91
39443;BME280;25147;52.142;9.960;2023-04-25T11:51:27;100112.59;;;7.38;56.92
39443;BME280;25147;52.142;9.960;2023-04-25T11:54:10;100195.41;;;8.01;56.17
39443;BME280;25147;52.142;9.960;2023-04-25T11:56:51;100115.03;;;7.56;56.14
39443;BME280;25147;52.142;9.960;2023-04-25T11:59:29;99892.28;;;6.22;56.48
39443;BME280;25147;52.142;9.960;2023-04-25T12:02:07;99882.84;;;6.12;57.62
39443;BME280;25147;52.142;9.960;2023-04-25T12:04:45;99783.72;;;5.39;56.74
39443;BME280;25147;52.142;9.960;2023-04-25T12:07:15;100210.31;;;7.83;56.93
39443;BME280;25147;52.142;9.960;2023-04-25T12:10:13;99917.53;;;6.03;57.87
39443;BME280;25147;52.142;9.960;2023-04-25T12:12:59;100125.69;;;7.24;58.11
39443;BME280;25147;52.142;9.960;2023-04-25T12:15:45;99742.44;;;4.86;57.24
39443;BME280;25147;52.142;9.960;2023-04-25T12:18:29;100232.06;;;7.82;57.82
39443;BME280;25147;52.142;9.960;2023-04-25T12:22:18;99771.03;;;4.70;59.07
39443;BME280;25147;52.142;9.960;2023-04-25T12:28:45;99906.66;;;5.08;61.09
39443;BME280;25147;52.142;9.960;2023-04-25T12:31:46;99892.84;;;4.93;61.49
39443;BME280;25147;52.142;9.960;2023-04-25T12:34:52;100253.31;;;7.16;61.01
39443;BME280;25147;52.142;9.960;2023-04-25T12:37:39;100001.59;;;5.89;61.03
39443;BME280;25147;52.142;9.960;2023-04-25T12:40:10;100241.00;;;7.44;60.82
39443;BME280;25147;52.142;9.960;2023-04-25T12:42:55;100246.97;;;7.60;60.29
39443;BME280;25147;52.142;9.960;2023-04-25T12:45:30;100087.03;;;6.67;59.66
39443;BME280;25147;52.142;9.960;2023-04-25T12:48:20;100226.81;;;7.86;58.42
39443;BME280;25147;52.142;9.960;2023-04-25T12:51:17;100232.81;;;7.97;57.77
39443;BME280;25147;52.142;9.960;2023-04-25T12:54:08;99962.50;;;6.16;57.20
39443;BME280;25147;52.142;9.960;2023-04-25T12:56:41;100234.56;;;7.98;56.90
39443;BME280;25147;52.142;9.960;2023-04-25T12:59:28;100235.34;;;8.06;55.90
39443;BME280;25147;52.142;9.960;2023-04-25T13:01:59;100059.84;;;7.11;56.58
39443;BME280;25147;52.142;9.960;2023-04-25T13:04:40;100234.28;;;8.29;56.67
39443;BME280;25147;52.142;9.960;2023-04-25T13:07:32;100243.63;;;8.50;55.47
39443;BME280;25147;52.142;9.960;2023-04-25T13:13:29;100218.31;;;8.59;51.58
39443;BME280;25147;52.142;9.960;2023-04-25T13:16:14;100267.50;;;8.93;50.45
39443;BME280;25147;52.142;9.960;2023-04-25T13:18:56;100254.38;;;8.99;50.28
39443;BME280;25147;52.142;9.960;2023-04-25T13:21:45;100257.81;;;9.03;49.90
39443;BME280;25147;52.142;9.960;2023-04-25T13:24:27;99983.28;;;7.32;49.68
39443;BME280;25147;52.142;9.960;2023-04-25T13:27:02;99965.09;;;7.29;50.25
39443;BME280;25147;52.142;9.960;2023-04-25T13:29:51;100265.72;;;8.98;50.80
39443;BME280;25147;52.142;9.960;2023-04-25T13:32:43;100171.75;;;8.21;52.14
39443;BME280;25147;52.142;9.960;2023-04-25T13:35:18;100285.19;;;8.68;53.05
39443;BME280;25147;52.142;9.960;2023-04-25T13:37:54;100293.25;;;8.45;53.76
39443;BME280;25147;52.142;9.960;2023-04-25T13:40:32;99857.13;;;5.66;54.36
39443;BME280;25147;52.142;9.960;2023-04-25T13:43:17;100184.50;;;7.53;55.64
39443;BME280;25147;52.142;9.960;2023-04-25T13:46:10;99775.31;;;4.73;56.38
39443;BME280;25147;52.142;9.960;2023-04-25T13:49:09;100332.97;;;7.59;58.46
39443;BME280;25147;52.142;9.960;2023-04-25T13:52:09;100294.00;;;7.40;60.63
39443;BME280;25147;52.142;9.960;2023-04-25T13:55:05;99843.63;;;4.56;61.35
39443;BME280;25147;52.142;9.960;2023-04-25T13:57:47;100280.19;;;7.31;61.85
39443;BME280;25147;52.142;9.960;2023-04-25T14:00:19;99998.25;;;5.51;61.84
39443;BME280;25147;52.142;9.960;2023-04-25T14:02:55;100316.56;;;7.43;61.59
39443;BME280;25147;52.142;9.960;2023-04-25T14:05:23;100280.88;;;7.56;61.25
39443;BME280;25147;52.142;9.960;2023-04-25T14:08:00;100302.47;;;7.76;61.37
39443;BME280;25147;52.142;9.960;2023-04-25T14:10:30;100182.94;;;7.35;61.29
39443;BME280;25147;52.142;9.960;2023-04-25T14:15:57;100280.28;;;8.34;59.99
39443;BME280;25147;52.142;9.960;2023-04-25T14:18:30;99994.31;;;6.57;60.26
39443;BME280;25147;52.142;9.960;2023-04-25T14:21:01;100316.88;;;8.23;60.68
39443;BME280;25147;52.142;9.960;2023-04-25T14:23:35;100299.53;;;8.22;60.93
39443;BME280;25147;52.142;9.960;2023-04-25T14:26:15;99769.16;;;5.09;60.99
39443;BME280;25147;52.142;9.960;2023-04-25T14:28:57;99854.53;;;5.65;59.85
39443;BME280;25147;52.142;9.960;2023-04-25T14:31:27;100257.63;;;8.42;60.10
39443;BME280;25147;52.142;9.960;2023-04-25T14:33:55;99972.38;;;6.93;59.22
39443;BME280;25147;52.142;9.960;2023-04-25T14:39:35;99841.25;;;6.14;57.29
39443;BME280;25147;52.142;9.960;2023-04-25T14:42:07;100142.72;;;7.67;58.64
39443;BME280;25147;52.142;9.960;2023-04-25T14:44:58;99817.31;;;5.64;61.88
39443;BME280;25147;52.142;9.960;2023-04-25T14:47:32;99982.56;;;5.85;63.58
39443;BME280;25147;52.142;9.960;2023-04-25T14:50:09;100025.78;;;6.12;65.27
39443;BME280;25147;52.142;9.960;2023-04-25T14:52:40;100322.50;;;7.68;67.69
39443;BME280;25147;52.142;9.960;2023-04-25T14:55:08;99876.44;;;4.70;69.31
39443;BME280;25147;52.142;9.960;2023-04-25T14:57:40;99987.09;;;4.95;71.31
39443;BME280;25147;52.142;9.960;2023-04-25T15:00:22;100188.59;;;6.30;73.08
39443;BME280;25147;52.142;9.960;2023-04-25T15:02:54;100312.38;;;7.02;72.70
39443;BME280;25147;52.142;9.960;2023-04-25T15:05:38;100123.72;;;5.89;72.80
39443;BME280;25147;52.142;9.960;2023-04-25T15:08:38;100322.81;;;7.00;72.30
39443;BME280;25147;52.142;9.960;2023-04-25T15:11:21;100217.22;;;6.27;72.69
39443;BME280;25147;52.142;9.960;2023-04-25T15:13:59;99942.13;;;4.61;73.32
39443;BME280;25147;52.142;9.960;2023-04-25T15:16:46;100297.66;;;6.95;74.70
39443;BME280;25147;52.142;9.960;2023-04-25T15:19:24;100172.13;;;6.34;74.07
39443;BME280;25147;52.142;9.960;2023-04-25T15:22:03;100071.75;;;5.98;73.70
39443;BME280;25147;52.142;9.960;2023-04-25T15:24:50;100171.13;;;6.69;73.55
39443;BME280;25147;52.142;9.960;2023-04-25T15:27:33;99912.63;;;5.43;70.45
39443;BME280;25147;52.142;9.960;2023-04-25T15:30:20;99846.84;;;5.38;70.38
39443;BME280;25147;52.142;9.960;2023-04-25T15:33:19;100309.69;;;8.55;67.86
39443;BME280;25147;52.142;9.960;2023-04-25T15:36:00;100018.34;;;6.94;65.56
39443;BME280;25147;52.142;9.960;2023-04-25T15:39:01;100351.75;;;9.09;65.84
39443;BME280;25147;52.142;9.960;2023-04-25T15:41:49;100153.38;;;8.30;63.18
39443;BME280;25147;52.142;9.960;2023-04-25T15:44:25;100302.22;;;9.68;62.14
39443;BME280;25147;52.142;9.960;2023-04-25T15:47:30;99841.44;;;6.90;60.95
39443;BME280;25147;52.142;9.960;2023-04-25T15:50:19;100314.38;;;9.72;58.75
39443;BME280;25147;52.142;9.960;2023-04-25T15:53:11;100167.00;;;8.58;59.30
39443;BME280;25147;52.142;9.960;2023-04-25T15:55:57;100329.28;;;9.67;59.49
39443;BME280;25147;52.142;9.960;2023-04-25T15:58:43;100350.59;;;9.36;59.75
39443;BME280;25147;52.142;9.960;2023-04-25T16:01:21;100349.28;;;8.98;57.22
39443;BME280;25147;52.142;9.960;2023-04-25T16:04:07;100355.47;;;8.85;56.67
39443;BME280;25147;52.142;9.960;2023-04-25T16:07:06;100330.34;;;8.79;55.88
39443;BME280;25147;52.142;9.960;2023-04-25T16:09:39;99902.72;;;6.16;55.63